Time;durP1;ratioP1;P1;durP2;ratioP2;P2;SDS_P1;SDS_P2;PMS_P1;PMS_P2;Temp;Humidity;BMP_temperature;BMP_pressure;BME280_temperature;BME280_humidity;BME280_pressure;Samples;Min_cycle;Max_cycle;Signal;HPM_P1;HPM_P2
2024/03/30 00:02:23;;;;;;;1.80;1.63;;;;;;;;;;5030453;28;20029;-73
2024/03/30 00:04:48;;;;;;;0.30;0.30;;;;;;;;;;5011607;28;20036;-74
2024/03/30 00:07:13;;;;;;;0.95;0.82;;;;;;;;;;5010648;28;20064;-74
2024/03/30 00:09:39;;;;;;;4.75;2.53;;;;;;;;;;5027970;28;20092;-74
2024/03/30 00:12:04;;;;;;;1.38;1.27;;;;;;;;;;5027760;28;20176;-74
2024/03/30 00:14:30;;;;;;;1.42;1.10;;;;;;;;;;5030641;28;20035;-74
2024/03/30 00:16:55;;;;;;;0.85;0.85;;;;;;;;;;5011106;28;20053;-74
2024/03/30 00:19:20;;;;;;;0.93;0.82;;;;;;;;;;5026248;28;20448;-74
2024/03/30 00:21:46;;;;;;;1.10;1.00;;;;;;;;;;5010535;28;20069;-73
2024/03/30 00:24:11;;;;;;;7.18;2.00;;;;;;;;;;5026279;28;20041;-74
2024/03/30 00:26:36;;;;;;;1.42;0.98;;;;;;;;;;5025557;28;20151;-73
2024/03/30 00:29:02;;;;;;;1.42;1.33;;;;;;;;;;5029073;28;20046;-75
2024/03/30 00:31:29;;;;;;;0.57;0.57;;;;;;;;;;5028977;28;20053;-74
2024/03/30 00:33:55;;;;;;;1.15;0.65;;;;;;;;;;5028101;28;20533;-75
2024/03/30 00:36:20;;;;;;;1.90;1.35;;;;;;;;;;5028065;28;20041;-75
2024/03/30 00:38:46;;;;;;;1.25;1.15;;;;;;;;;;5028477;28;20033;-74
2024/03/30 00:41:11;;;;;;;1.25;1.15;;;;;;;;;;5025806;28;20084;-74
2024/03/30 00:43:37;;;;;;;1.77;1.67;;;;;;;;;;5028603;28;20125;-74
2024/03/30 00:46:02;;;;;;;0.85;0.80;;;;;;;;;;5027613;28;20038;-76
2024/03/30 00:48:28;;;;;;;1.35;1.25;;;;;;;;;;5027941;28;20033;-73
2024/03/30 00:50:53;;;;;;;1.50;1.23;;;;;;;;;;5029576;28;20418;-73
2024/03/30 00:53:18;;;;;;;1.65;1.17;;;;;;;;;;5029337;28;20028;-74
2024/03/30 00:55:44;;;;;;;6.10;2.28;;;;;;;;;;5022351;28;20415;-74
2024/03/30 00:58:09;;;;;;;2.45;1.80;;;;;;;;;;5028387;28;20049;-74
2024/03/30 01:00:34;;;;;;;0.80;0.68;;;;;;;;;;5027649;28;20120;-75
2024/03/30 01:03:00;;;;;;;2.70;2.25;;;;;;;;;;5025896;28;20045;-75
2024/03/30 01:05:25;;;;;;;0.55;0.55;;;;;;;;;;5027366;28;20083;-74
2024/03/30 01:07:50;;;;;;;1.33;1.23;;;;;;;;;;5026336;28;20045;-75
2024/03/30 01:10:16;;;;;;;2.60;2.05;;;;;;;;;;5025007;28;20096;-73
2024/03/30 01:12:42;;;;;;;4.53;2.88;;;;;;;;;;5026912;28;20037;-74
2024/03/30 01:15:08;;;;;;;2.13;1.25;;;;;;;;;;5027086;28;20038;-73
2024/03/30 01:17:34;;;;;;;1.15;0.95;;;;;;;;;;5027486;28;20018;-75
2024/03/30 01:20:00;;;;;;;2.58;1.45;;;;;;;;;;5025720;28;20040;-75
2024/03/30 01:22:26;;;;;;;1.45;1.30;;;;;;;;;;5021201;28;20038;-74
2024/03/30 01:24:51;;;;;;;0.95;0.63;;;;;;;;;;5023994;28;20108;-74
2024/03/30 01:27:18;;;;;;;1.13;1.05;;;;;;;;;;5025242;28;20045;-74
2024/03/30 01:29:44;;;;;;;3.25;2.20;;;;;;;;;;5026620;28;20520;-74
2024/03/30 01:32:13;;;;;;;0.75;0.63;;;;;;;;;;5007854;28;20092;-75
2024/03/30 01:34:39;;;;;;;0.68;0.68;;;;;;;;;;5024259;28;20068;-74
2024/03/30 01:37:04;;;;;;;2.15;1.58;;;;;;;;;;5008478;28;20481;-75
2024/03/30 01:39:29;;;;;;;1.50;1.40;;;;;;;;;;5022890;28;20037;-73
2024/03/30 01:41:55;;;;;;;0.25;0.25;;;;;;;;;;5026518;28;20036;-74
2024/03/30 01:44:20;;;;;;;1.95;1.58;;;;;;;;;;5025675;28;20630;-74
2024/03/30 01:46:47;;;;;;;1.25;1.15;;;;;;;;;;5026673;28;20033;-76
2024/03/30 01:49:13;;;;;;;1.48;1.17;;;;;;;;;;5024614;28;20055;-74
2024/03/30 01:51:39;;;;;;;0.65;0.60;;;;;;;;;;5025487;28;20033;-76
2024/03/30 01:54:08;;;;;;;4.00;1.67;;;;;;;;;;5025906;28;20096;-76
2024/03/30 01:56:34;;;;;;;0.30;0.30;;;;;;;;;;5006760;28;20057;-75
2024/03/30 01:59:01;;;;;;;1.48;1.33;;;;;;;;;;5023537;28;20041;-75
2024/03/30 02:01:26;;;;;;;3.03;2.45;;;;;;;;;;5021347;28;20041;-76
2024/03/30 02:03:52;;;;;;;2.58;1.70;;;;;;;;;;5026581;28;20814;-74
2024/03/30 02:06:18;;;;;;;2.88;2.50;;;;;;;;;;4973910;28;1337177;-76
2024/03/30 02:08:44;;;;;;;0.68;0.65;;;;;;;;;;5025993;28;20071;-75
2024/03/30 02:11:10;;;;;;;0.88;0.75;;;;;;;;;;5026134;28;20563;-73
2024/03/30 02:13:35;;;;;;;3.30;2.35;;;;;;;;;;5024009;28;20041;-76
2024/03/30 02:16:01;;;;;;;0.47;0.40;;;;;;;;;;5026571;28;20034;-75
2024/03/30 02:18:26;;;;;;;1.85;1.35;;;;;;;;;;5025347;28;20405;-75
2024/03/30 02:20:51;;;;;;;1.30;1.05;;;;;;;;;;5027230;28;20028;-75
2024/03/30 02:23:17;;;;;;;2.03;1.92;;;;;;;;;;5023238;28;20138;-72
2024/03/30 02:25:42;;;;;;;0.50;0.50;;;;;;;;;;5025814;28;20883;-75
2024/03/30 02:28:08;;;;;;;2.65;2.38;;;;;;;;;;5025816;28;20042;-74
2024/03/30 02:30:33;;;;;;;6.28;2.80;;;;;;;;;;5027075;28;20042;-76
2024/03/30 02:32:59;;;;;;;1.48;1.13;;;;;;;;;;5026477;28;20551;-76
2024/03/30 02:35:25;;;;;;;1.65;1.10;;;;;;;;;;5026205;28;20048;-75
2024/03/30 02:37:53;;;;;;;0.75;0.68;;;;;;;;;;5025286;28;20397;-75
2024/03/30 02:40:19;;;;;;;3.83;2.35;;;;;;;;;;5024057;28;20046;-74
2024/03/30 02:42:44;;;;;;;3.55;1.70;;;;;;;;;;5008777;28;20041;-74
2024/03/30 02:45:11;;;;;;;0.80;0.65;;;;;;;;;;5026944;28;20060;-74
2024/03/30 02:47:36;;;;;;;2.65;1.80;;;;;;;;;;5005388;28;20393;-74
2024/03/30 02:50:02;;;;;;;1.20;1.10;;;;;;;;;;5025903;28;20057;-74
2024/03/30 02:52:27;;;;;;;7.97;3.30;;;;;;;;;;5008467;28;20075;-74
2024/03/30 02:54:53;;;;;;;1.27;1.17;;;;;;;;;;5024855;28;20577;-75
2024/03/30 02:57:18;;;;;;;0.85;0.75;;;;;;;;;;5026345;28;20044;-73
2024/03/30 02:59:43;;;;;;;1.77;1.67;;;;;;;;;;5022064;28;20021;-74
2024/03/30 03:02:09;;;;;;;3.00;1.10;;;;;;;;;;5009162;28;20029;-75
2024/03/30 03:04:34;;;;;;;1.10;1.00;;;;;;;;;;5025154;28;20528;-74
2024/03/30 03:07:02;;;;;;;2.60;2.30;;;;;;;;;;5023764;28;20493;-76
2024/03/30 03:09:27;;;;;;;0.88;0.73;;;;;;;;;;5024468;28;20053;-73
2024/03/30 03:11:52;;;;;;;2.25;1.23;;;;;;;;;;5008277;28;20032;-74
2024/03/30 03:14:18;;;;;;;3.25;2.95;;;;;;;;;;5024404;28;20116;-73
2024/03/30 03:16:43;;;;;;;2.72;1.35;;;;;;;;;;5026083;28;20063;-75
2024/03/30 03:19:10;;;;;;;2.22;1.77;;;;;;;;;;5024938;28;20125;-74
2024/03/30 03:21:35;;;;;;;3.50;1.77;;;;;;;;;;5025332;28;20037;-75
2024/03/30 03:24:00;;;;;;;2.53;2.30;;;;;;;;;;5024134;28;20528;-73
2024/03/30 03:26:26;;;;;;;4.55;2.40;;;;;;;;;;5024711;28;20027;-73
2024/03/30 03:28:51;;;;;;;7.93;3.63;;;;;;;;;;5019858;28;20046;-75
2024/03/30 03:31:16;;;;;;;1.55;1.45;;;;;;;;;;5003360;28;20068;-74
2024/03/30 03:33:42;;;;;;;0.75;0.68;;;;;;;;;;5025052;28;20045;-73
2024/03/30 03:36:07;;;;;;;7.00;2.13;;;;;;;;;;5025956;28;20049;-74
2024/03/30 03:38:33;;;;;;;3.83;2.38;;;;;;;;;;5026572;28;20076;-74
2024/03/30 03:40:58;;;;;;;2.70;1.75;;;;;;;;;;5020610;28;20041;-74
2024/03/30 03:43:23;;;;;;;2.55;2.15;;;;;;;;;;5025274;28;20120;-76
2024/03/30 03:45:49;;;;;;;1.63;1.52;;;;;;;;;;5009619;28;20037;-75
2024/03/30 03:48:14;;;;;;;2.78;2.50;;;;;;;;;;5025396;28;20710;-75
2024/03/30 03:50:40;;;;;;;4.57;2.55;;;;;;;;;;5023781;28;20044;-74
2024/03/30 03:53:06;;;;;;;3.05;2.28;;;;;;;;;;5020797;28;20025;-73
2024/03/30 03:55:31;;;;;;;2.20;2.00;;;;;;;;;;5022967;28;20087;-74
2024/03/30 03:57:57;;;;;;;2.47;1.73;;;;;;;;;;5022100;28;20033;-75
2024/03/30 04:00:22;;;;;;;1.83;1.67;;;;;;;;;;5043563;28;20184;-75
2024/03/30 04:02:47;;;;;;;3.58;3.10;;;;;;;;;;5025876;28;20025;-75
2024/03/30 04:05:13;;;;;;;1.23;1.13;;;;;;;;;;5025194;28;20056;-75
2024/03/30 04:07:38;;;;;;;9.25;3.30;;;;;;;;;;5022405;28;20548;-74
2024/03/30 04:10:06;;;;;;;3.35;1.75;;;;;;;;;;5023641;28;20068;-76
2024/03/30 04:12:31;;;;;;;1.60;1.45;;;;;;;;;;5024791;28;20512;-75
2024/03/30 04:14:57;;;;;;;5.15;3.08;;;;;;;;;;5017264;28;20013;-73
2024/03/30 04:17:22;;;;;;;1.02;0.93;;;;;;;;;;5037276;28;20029;-73
2024/03/30 04:19:47;;;;;;;2.53;2.33;;;;;;;;;;5025054;28;20037;-74
2024/03/30 04:22:13;;;;;;;3.75;3.17;;;;;;;;;;5023301;28;20704;-75
2024/03/30 04:24:38;;;;;;;3.85;2.63;;;;;;;;;;5023617;28;20045;-73
2024/03/30 04:27:04;;;;;;;4.72;3.22;;;;;;;;;;5022010;28;20042;-75
2024/03/30 04:29:29;;;;;;;4.35;3.20;;;;;;;;;;5007641;28;20481;-75
2024/03/30 04:31:55;;;;;;;3.67;3.30;;;;;;;;;;5024222;28;20095;-75
2024/03/30 04:34:20;;;;;;;3.17;2.88;;;;;;;;;;5024789;28;20095;-76
2024/03/30 04:36:45;;;;;;;4.25;2.67;;;;;;;;;;5006884;28;20053;-75
2024/03/30 04:39:11;;;;;;;0.20;0.20;;;;;;;;;;5007036;28;20485;-76
2024/03/30 04:41:36;;;;;;;2.63;2.33;;;;;;;;;;5023316;28;20025;-77
2024/03/30 04:44:02;;;;;;;1.75;1.65;;;;;;;;;;5026661;28;20029;-76
2024/03/30 04:46:28;;;;;;;1.55;1.10;;;;;;;;;;5028692;28;20041;-74
2024/03/30 04:48:53;;;;;;;5.22;2.85;;;;;;;;;;5027910;28;20045;-75
2024/03/30 04:51:18;;;;;;;3.28;2.72;;;;;;;;;;5026878;28;20168;-74
2024/03/30 04:53:44;;;;;;;2.05;1.85;;;;;;;;;;5029528;28;20018;-75
2024/03/30 04:56:10;;;;;;;3.70;3.33;;;;;;;;;;5028171;28;20825;-75
2024/03/30 04:58:36;;;;;;;1.73;1.63;;;;;;;;;;5028431;28;20057;-73
2024/03/30 05:01:02;;;;;;;3.70;1.27;;;;;;;;;;5028104;28;20022;-75
2024/03/30 05:03:27;;;;;;;3.22;2.40;;;;;;;;;;5010096;28;20045;-74
2024/03/30 05:05:53;;;;;;;5.63;4.60;;;;;;;;;;5026952;28;20041;-73
2024/03/30 05:08:18;;;;;;;3.47;3.10;;;;;;;;;;5044936;28;20031;-73
2024/03/30 05:10:45;;;;;;;4.22;3.80;;;;;;;;;;5022966;28;20076;-75
2024/03/30 05:13:11;;;;;;;4.55;3.58;;;;;;;;;;5024135;28;20100;-73
2024/03/30 05:15:37;;;;;;;2.85;2.58;;;;;;;;;;5002965;28;20053;-74
2024/03/30 05:18:06;;;;;;;2.97;2.78;;;;;;;;;;5027568;28;20498;-74
2024/03/30 05:20:50;;;;;;;3.50;2.75;;;;;;;;;;5025357;28;20017;-75
2024/03/30 05:23:20;;;;;;;2.28;1.83;;;;;;;;;;5020788;28;20046;-73
2024/03/30 05:25:45;;;;;;;3.97;2.42;;;;;;;;;;5027434;28;20141;-74
2024/03/30 05:28:11;;;;;;;8.88;2.80;;;;;;;;;;5023585;28;20513;-74
2024/03/30 05:30:37;;;;;;;3.67;2.92;;;;;;;;;;5027081;28;20132;-75
2024/03/30 05:33:03;;;;;;;2.10;1.90;;;;;;;;;;5027647;28;20045;-75
2024/03/30 05:35:28;;;;;;;1.92;1.58;;;;;;;;;;5027640;28;20025;-75
2024/03/30 05:37:54;;;;;;;3.35;3.03;;;;;;;;;;5026325;28;20060;-75
2024/03/30 05:40:19;;;;;;;4.95;3.97;;;;;;;;;;5025360;28;20084;-74
2024/03/30 05:42:44;;;;;;;6.85;3.90;;;;;;;;;;5025647;28;20414;-75
2024/03/30 05:45:10;;;;;;;2.95;2.65;;;;;;;;;;5027498;28;20034;-74
2024/03/30 05:47:35;;;;;;;20.77;3.47;;;;;;;;;;5026825;28;20891;-77
2024/03/30 05:50:01;;;;;;;13.23;4.30;;;;;;;;;;4988232;28;20116;-75
2024/03/30 05:52:26;;;;;;;6.95;6.28;;;;;;;;;;5007792;28;20045;-74
2024/03/30 05:54:53;;;;;;;4.85;2.95;;;;;;;;;;5023367;28;20140;-75
2024/03/30 05:57:18;;;;;;;6.13;5.28;;;;;;;;;;5024604;28;20053;-74
2024/03/30 05:59:43;;;;;;;18.60;4.50;;;;;;;;;;5027079;28;20478;-75
2024/03/30 06:02:09;;;;;;;2.67;2.42;;;;;;;;;;5017300;28;20195;-75
2024/03/30 06:04:34;;;;;;;4.70;3.78;;;;;;;;;;5021958;28;20390;-73
2024/03/30 06:06:59;;;;;;;1.48;1.38;;;;;;;;;;5023792;28;20055;-76
2024/03/30 06:09:25;;;;;;;2.92;2.70;;;;;;;;;;5024541;28;20096;-75
2024/03/30 06:11:50;;;;;;;4.40;2.63;;;;;;;;;;5023915;28;20035;-75
2024/03/30 06:14:16;;;;;;;1.95;1.80;;;;;;;;;;5025084;28;20397;-76
2024/03/30 06:16:42;;;;;;;3.42;2.38;;;;;;;;;;5025574;28;20037;-74
2024/03/30 06:19:08;;;;;;;1.50;1.40;;;;;;;;;;5023349;28;20048;-75
2024/03/30 06:21:33;;;;;;;2.33;1.40;;;;;;;;;;5004149;28;20045;-74
2024/03/30 06:23:59;;;;;;;2.03;1.83;;;;;;;;;;5026444;28;20493;-76
2024/03/30 06:26:24;;;;;;;4.20;3.10;;;;;;;;;;5024192;28;20441;-75
2024/03/30 06:28:50;;;;;;;1.63;1.35;;;;;;;;;;5022215;28;20064;-75
2024/03/30 06:31:15;;;;;;;2.42;2.13;;;;;;;;;;5021875;28;20057;-76
2024/03/30 06:33:40;;;;;;;7.55;3.83;;;;;;;;;;5025848;28;20056;-74
2024/03/30 06:36:06;;;;;;;3.97;2.53;;;;;;;;;;5026246;28;20470;-74
2024/03/30 06:38:31;;;;;;;2.15;1.85;;;;;;;;;;5018535;28;20018;-72
2024/03/30 06:43:41;;;;;;;3.28;2.97;;;;;;;;;;5025018;28;20125;-72
2024/03/30 06:46:06;;;;;;;2.45;2.13;;;;;;;;;;5007454;28;20468;-73
2024/03/30 06:48:31;;;;;;;4.10;3.75;;;;;;;;;;5020530;28;20041;-74
2024/03/30 06:50:57;;;;;;;5.60;3.13;;;;;;;;;;5023543;28;20136;-76
2024/03/30 06:53:23;;;;;;;5.15;2.30;;;;;;;;;;5026334;28;20026;-72
2024/03/30 06:55:48;;;;;;;1.58;1.45;;;;;;;;;;5026166;28;20128;-75
2024/03/30 06:58:14;;;;;;;2.58;2.38;;;;;;;;;;5018366;28;20046;-75
2024/03/30 07:00:39;;;;;;;2.47;2.28;;;;;;;;;;5006283;28;20476;-73
2024/03/30 07:03:05;;;;;;;2.60;2.40;;;;;;;;;;5026273;28;20524;-74
2024/03/30 07:05:31;;;;;;;1.35;0.95;;;;;;;;;;5025788;28;20046;-73
2024/03/30 07:07:56;;;;;;;2.20;1.55;;;;;;;;;;5008972;28;20454;-74
2024/03/30 07:10:21;;;;;;;5.68;3.25;;;;;;;;;;5023250;28;20057;-75
2024/03/30 07:12:47;;;;;;;1.48;1.38;;;;;;;;;;5024199;28;20379;-75
2024/03/30 07:15:13;;;;;;;1.45;1.20;;;;;;;;;;5021842;28;20076;-75
2024/03/30 07:17:38;;;;;;;1.13;1.02;;;;;;;;;;5020801;28;20449;-76
2024/03/30 07:20:04;;;;;;;1.77;1.60;;;;;;;;;;5003268;28;20064;-75
2024/03/30 07:22:29;;;;;;;2.88;2.25;;;;;;;;;;5002665;28;20041;-72
2024/03/30 07:24:55;;;;;;;4.05;3.22;;;;;;;;;;4999816;28;20037;-68
2024/03/30 07:27:21;;;;;;;2.30;2.08;;;;;;;;;;5021629;28;20037;-68
2024/03/30 07:29:50;;;;;;;3.45;3.15;;;;;;;;;;5025655;28;20040;-70
2024/03/30 07:32:15;;;;;;;10.70;3.38;;;;;;;;;;5010025;28;20026;-68
2024/03/30 07:34:47;;;;;;;7.70;1.13;;;;;;;;;;5021121;28;20036;-69
2024/03/30 07:37:13;;;;;;;0.47;0.47;;;;;;;;;;5027569;28;20083;-69
2024/03/30 07:39:39;;;;;;;0.73;0.73;;;;;;;;;;5020276;28;20038;-69
2024/03/30 07:42:05;;;;;;;1.67;1.55;;;;;;;;;;5023899;28;20041;-69
2024/03/30 07:44:30;;;;;;;2.70;1.88;;;;;;;;;;5018796;28;20079;-68
2024/03/30 07:46:55;;;;;;;2.90;2.40;;;;;;;;;;5004845;28;20522;-67
2024/03/30 07:49:21;;;;;;;1.63;1.08;;;;;;;;;;5021232;28;20064;-68
2024/03/30 07:51:46;;;;;;;2.55;1.38;;;;;;;;;;5023294;28;20065;-69
2024/03/30 07:54:11;;;;;;;3.25;2.22;;;;;;;;;;5020188;28;20075;-67
2024/03/30 07:56:38;;;;;;;2.55;2.35;;;;;;;;;;5022327;28;20083;-70
2024/03/30 07:59:04;;;;;;;0.85;0.77;;;;;;;;;;5023390;28;20049;-67
2024/03/30 08:01:31;;;;;;;2.42;2.22;;;;;;;;;;5022785;28;20184;-67
2024/03/30 08:03:56;;;;;;;4.40;2.03;;;;;;;;;;5023638;28;20103;-70
2024/03/30 08:06:22;;;;;;;2.28;2.08;;;;;;;;;;5023921;28;20050;-66
2024/03/30 08:08:47;;;;;;;1.45;1.15;;;;;;;;;;5019775;28;20052;-75
2024/03/30 08:11:12;;;;;;;3.13;2.83;;;;;;;;;;5023037;28;20030;-78
2024/03/30 08:13:38;;;;;;;3.90;3.17;;;;;;;;;;5024231;28;20045;-75
2024/03/30 08:16:03;;;;;;;2.80;1.73;;;;;;;;;;5023883;28;20513;-74
2024/03/30 08:18:30;;;;;;;1.65;1.40;;;;;;;;;;5008632;28;20061;-76
2024/03/30 08:21:01;;;;;;;2.08;1.85;;;;;;;;;;5028507;28;20037;-78
2024/03/30 08:23:26;;;;;;;1.58;1.10;;;;;;;;;;5028292;28;20025;-76
2024/03/30 08:25:51;;;;;;;1.15;0.88;;;;;;;;;;5026198;28;20033;-74
2024/03/30 08:28:17;;;;;;;0.60;0.47;;;;;;;;;;5009327;28;20526;-74
2024/03/30 08:30:42;;;;;;;26.17;3.72;;;;;;;;;;5028134;28;20045;-76
2024/03/30 08:33:08;;;;;;;4.20;1.63;;;;;;;;;;5004612;28;20046;-76
2024/03/30 08:35:33;;;;;;;0.77;0.68;;;;;;;;;;5001810;28;20013;-76
2024/03/30 08:37:59;;;;;;;2.00;1.90;;;;;;;;;;5023776;28;20112;-76
2024/03/30 08:40:24;;;;;;;3.95;1.77;;;;;;;;;;5025122;28;20095;-76
2024/03/30 08:42:49;;;;;;;4.55;2.20;;;;;;;;;;5025960;28;20951;-75
2024/03/30 08:45:17;;;;;;;2.50;2.30;;;;;;;;;;5026886;28;20107;-75
2024/03/30 08:47:42;;;;;;;0.90;0.85;;;;;;;;;;5024802;28;20017;-75
2024/03/30 08:50:08;;;;;;;0.80;0.80;;;;;;;;;;5008475;28;20053;-76
2024/03/30 08:52:33;;;;;;;0.90;0.88;;;;;;;;;;5026212;28;20049;-74
2024/03/30 08:54:58;;;;;;;2.22;1.77;;;;;;;;;;5023475;28;20549;-74
2024/03/30 08:57:24;;;;;;;0.82;0.55;;;;;;;;;;5023452;28;20046;-75
2024/03/30 08:59:51;;;;;;;2.42;2.22;;;;;;;;;;5026302;28;20013;-74
2024/03/30 09:02:18;;;;;;;0.98;0.88;;;;;;;;;;5023429;28;20073;-77
2024/03/30 09:04:43;;;;;;;1.00;0.90;;;;;;;;;;5025799;28;20045;-76
2024/03/30 09:07:09;;;;;;;0.95;0.90;;;;;;;;;;5023910;28;20505;-73
2024/03/30 09:09:35;;;;;;;0.63;0.63;;;;;;;;;;5023199;28;20053;-74
2024/03/30 09:12:07;;;;;;;3.35;1.30;;;;;;;;;;5024204;28;20478;-74
2024/03/30 09:14:35;;;;;;;3.72;2.05;;;;;;;;;;5035820;28;20032;-76
2024/03/30 09:17:01;;;;;;;7.20;5.35;;;;;;;;;;5039054;28;20080;-74
2024/03/30 09:19:26;;;;;;;2.65;2.45;;;;;;;;;;5022291;28;20041;-73
2024/03/30 09:21:52;;;;;;;16.52;7.38;;;;;;;;;;5007294;28;20509;-71
2024/03/30 09:24:17;;;;;;;7.03;6.15;;;;;;;;;;5024600;28;20485;-71
2024/03/30 09:26:43;;;;;;;3.03;2.75;;;;;;;;;;5022391;28;20101;-74
2024/03/30 09:29:08;;;;;;;10.52;8.60;;;;;;;;;;5021689;28;20120;-73
2024/03/30 09:31:36;;;;;;;4.47;3.78;;;;;;;;;;5023362;28;20052;-74
2024/03/30 09:34:01;;;;;;;2.53;2.33;;;;;;;;;;5023008;28;20042;-74
2024/03/30 09:36:26;;;;;;;5.00;1.48;;;;;;;;;;5024455;28;20109;-74
2024/03/30 09:38:52;;;;;;;3.97;2.83;;;;;;;;;;5023494;28;20032;-73
2024/03/30 09:41:21;;;;;;;0.95;0.90;;;;;;;;;;5015383;28;20025;-73
2024/03/30 09:43:47;;;;;;;0.80;0.65;;;;;;;;;;5016627;28;20561;-75
2024/03/30 09:46:14;;;;;;;1.45;0.95;;;;;;;;;;5005995;28;20148;-73
2024/03/30 09:48:41;;;;;;;1.98;1.83;;;;;;;;;;5021275;28;20047;-75
2024/03/30 09:51:08;;;;;;;3.90;3.60;;;;;;;;;;5025985;28;20045;-74
2024/03/30 09:53:35;;;;;;;3.55;2.42;;;;;;;;;;5024424;28;20028;-75
2024/03/30 09:56:01;;;;;;;0.73;0.40;;;;;;;;;;5024114;28;20041;-74
2024/03/30 09:58:26;;;;;;;1.15;0.88;;;;;;;;;;5026620;28;20050;-74
2024/03/30 10:00:52;;;;;;;0.50;0.45;;;;;;;;;;5020689;28;20068;-73
2024/03/30 10:03:17;;;;;;;3.30;2.10;;;;;;;;;;5024612;28;20746;-74
2024/03/30 10:05:46;;;;;;;2.05;1.70;;;;;;;;;;5024929;28;20053;-74
2024/03/30 10:08:14;;;;;;;3.25;1.88;;;;;;;;;;5025518;28;20040;-74
2024/03/30 10:10:41;;;;;;;0.75;0.70;;;;;;;;;;5013626;28;20057;-73
2024/03/30 10:13:15;;;;;;;0.70;0.65;;;;;;;;;;5020057;28;20513;-71
2024/03/30 10:15:45;;;;;;;0.55;0.55;;;;;;;;;;5023562;28;20398;-74
2024/03/30 10:18:11;;;;;;;1.65;1.50;;;;;;;;;;5007092;28;20500;-73
2024/03/30 10:20:37;;;;;;;3.08;1.90;;;;;;;;;;5024781;28;20078;-72
2024/03/30 10:23:03;;;;;;;1.35;1.05;;;;;;;;;;5021824;28;20037;-73
2024/03/30 10:25:28;;;;;;;15.10;2.42;;;;;;;;;;5024030;28;20045;-74
2024/03/30 10:27:54;;;;;;;1.05;0.95;;;;;;;;;;5021668;28;20091;-74
2024/03/30 10:30:19;;;;;;;0.95;0.88;;;;;;;;;;5024987;28;20053;-73
2024/03/30 10:32:45;;;;;;;0.38;0.35;;;;;;;;;;5023333;28;20132;-75
2024/03/30 10:35:13;;;;;;;1.88;1.75;;;;;;;;;;5020499;28;20108;-74
2024/03/30 10:37:38;;;;;;;0.98;0.85;;;;;;;;;;5019769;28;20041;-78
2024/03/30 10:40:07;;;;;;;1.13;1.05;;;;;;;;;;5021687;28;20037;-79
2024/03/30 10:42:33;;;;;;;0.30;0.30;;;;;;;;;;5022765;28;20055;-79
2024/03/30 10:45:01;;;;;;;2.15;1.40;;;;;;;;;;5025028;28;20500;-82
2024/03/30 10:47:27;;;;;;;1.70;1.60;;;;;;;;;;5024221;28;20044;-78
2024/03/30 10:49:54;;;;;;;1.65;1.55;;;;;;;;;;5021281;28;20086;-79
2024/03/30 10:52:19;;;;;;;3.95;3.05;;;;;;;;;;5004565;28;20152;-83
2024/03/30 10:54:45;;;;;;;1.33;1.27;;;;;;;;;;5025251;28;20045;-82
2024/03/30 10:57:11;;;;;;;0.60;0.60;;;;;;;;;;5024031;28;20357;-77
2024/03/30 10:59:41;;;;;;;0.50;0.50;;;;;;;;;;5027559;28;20021;-80
2024/03/30 11:02:16;;;;;;;1.13;1.02;;;;;;;;;;5008084;28;20048;-79
2024/03/30 11:04:42;;;;;;;0.90;0.85;;;;;;;;;;5026423;28;20060;-80
2024/03/30 11:07:08;;;;;;;0.88;0.82;;;;;;;;;;5023744;28;20100;-78
2024/03/30 11:09:37;;;;;;;0.57;0.52;;;;;;;;;;5025121;28;20056;-80
2024/03/30 11:12:03;;;;;;;10.85;1.30;;;;;;;;;;5024717;28;20124;-78
2024/03/30 11:14:29;;;;;;;2.70;2.03;;;;;;;;;;5025009;28;20525;-80
2024/03/30 11:16:56;;;;;;;1.58;1.30;;;;;;;;;;5006429;28;20044;-78
2024/03/30 11:19:29;;;;;;;3.33;2.97;;;;;;;;;;5017604;28;20033;-79
2024/03/30 11:22:33;;;;;;;0.38;0.38;;;;;;;;;;5005536;28;20045;-79
2024/03/30 11:24:59;;;;;;;0.77;0.60;;;;;;;;;;4943880;28;20043;-79
2024/03/30 11:27:28;;;;;;;1.10;1.00;;;;;;;;;;4956429;28;20118;-80
2024/03/30 11:30:07;;;;;;;0.68;0.68;;;;;;;;;;4992797;28;20119;-76
2024/03/30 11:32:38;;;;;;;4.57;2.45;;;;;;;;;;5024209;28;20028;-80
2024/03/30 11:35:09;;;;;;;0.95;0.50;;;;;;;;;;5024569;28;20080;-78
2024/03/30 11:37:38;;;;;;;0.30;0.30;;;;;;;;;;5023963;28;20057;-79
2024/03/30 11:40:06;;;;;;;1.85;1.58;;;;;;;;;;5023179;28;20163;-80
2024/03/30 11:42:38;;;;;;;1.05;0.68;;;;;;;;;;5022860;28;20060;-78
2024/03/30 11:45:06;;;;;;;0.75;0.52;;;;;;;;;;5024743;28;20052;-80
2024/03/30 11:47:32;;;;;;;0.93;0.93;;;;;;;;;;5026160;28;20521;-80
2024/03/30 11:49:58;;;;;;;1.85;1.45;;;;;;;;;;5025720;28;20163;-78
2024/03/30 11:52:23;;;;;;;0.55;0.55;;;;;;;;;;5028795;28;20567;-79
2024/03/30 11:54:49;;;;;;;0.55;0.55;;;;;;;;;;5029133;28;20774;-79
2024/03/30 11:57:14;;;;;;;1.02;1.02;;;;;;;;;;5028879;28;20045;-80
2024/03/30 11:59:40;;;;;;;0.47;0.40;;;;;;;;;;5029103;28;20030;-78
2024/03/30 12:02:08;;;;;;;0.98;0.95;;;;;;;;;;5029243;28;20041;-80
2024/03/30 12:04:38;;;;;;;1.33;0.60;;;;;;;;;;5029284;28;20033;-78
2024/03/30 12:07:07;;;;;;;2.50;0.95;;;;;;;;;;5029599;28;20092;-80
2024/03/30 12:09:34;;;;;;;0.52;0.35;;;;;;;;;;5029091;28;20049;-79
2024/03/30 12:12:10;;;;;;;1.35;0.82;;;;;;;;;;5023512;28;20048;-77
2024/03/30 12:14:45;;;;;;;1.75;1.63;;;;;;;;;;5028438;28;20027;-80
2024/03/30 12:17:11;;;;;;;0.70;0.70;;;;;;;;;;5029119;28;20096;-77
2024/03/30 12:19:37;;;;;;;2.30;1.85;;;;;;;;;;4993415;28;20046;-80
2024/03/30 12:22:04;;;;;;;6.85;1.83;;;;;;;;;;5008248;28;20531;-78
2024/03/30 12:24:32;;;;;;;0.20;0.20;;;;;;;;;;5027356;28;20045;-78
2024/03/30 12:26:58;;;;;;;2.88;0.90;;;;;;;;;;5026777;28;20507;-80
2024/03/30 12:29:23;;;;;;;1.25;1.15;;;;;;;;;;5029277;28;20021;-80
2024/03/30 12:31:49;;;;;;;0.80;0.80;;;;;;;;;;5029556;28;20068;-80
2024/03/30 12:34:14;;;;;;;0.95;0.95;;;;;;;;;;5029526;28;20076;-77
2024/03/30 12:36:40;;;;;;;1.95;1.15;;;;;;;;;;5014178;28;20033;-78
2024/03/30 12:39:08;;;;;;;2.05;1.30;;;;;;;;;;5029530;28;20037;-78
2024/03/30 12:41:33;;;;;;;0.57;0.57;;;;;;;;;;5042236;28;20033;-80
2024/03/30 12:43:59;;;;;;;1.15;1.05;;;;;;;;;;5011114;28;20544;-78
2024/03/30 12:46:24;;;;;;;2.13;2.03;;;;;;;;;;5026098;28;20438;-80
2024/03/30 12:48:51;;;;;;;1.38;1.27;;;;;;;;;;5028074;28;20041;-80
2024/03/30 12:51:16;;;;;;;1.95;1.15;;;;;;;;;;5028633;28;20739;-77
2024/03/30 12:53:41;;;;;;;0.85;0.85;;;;;;;;;;5027380;28;20047;-80
2024/03/30 12:56:07;;;;;;;0.75;0.50;;;;;;;;;;5027786;28;20378;-82
2024/03/30 12:58:32;;;;;;;0.55;0.38;;;;;;;;;;5028213;28;20075;-81
2024/03/30 13:00:59;;;;;;;0.30;0.30;;;;;;;;;;5028037;28;20042;-77
2024/03/30 13:03:25;;;;;;;0.55;0.55;;;;;;;;;;5009151;28;20042;-78
2024/03/30 13:05:50;;;;;;;0.90;0.85;;;;;;;;;;5029039;28;20460;-82
2024/03/30 13:08:15;;;;;;;1.13;1.05;;;;;;;;;;5012351;28;20044;-79
2024/03/30 13:10:42;;;;;;;0.38;0.38;;;;;;;;;;5027440;28;20046;-76
2024/03/30 13:13:07;;;;;;;0.45;0.43;;;;;;;;;;5028612;28;20037;-81
2024/03/30 13:15:33;;;;;;;0.50;0.50;;;;;;;;;;5010077;28;20520;-79
2024/03/30 13:18:05;;;;;;;0.20;0.15;;;;;;;;;;5027813;28;20146;-80
2024/03/30 13:20:30;;;;;;;3.55;2.10;;;;;;;;;;5026913;28;20171;-78
2024/03/30 13:22:59;;;;;;;1.15;1.08;;;;;;;;;;5008482;28;20068;-80
2024/03/30 13:25:24;;;;;;;1.65;1.30;;;;;;;;;;5023927;28;20029;-79
2024/03/30 13:27:50;;;;;;;14.30;2.00;;;;;;;;;;5027025;28;20716;-82
2024/03/30 13:30:15;;;;;;;1.35;1.25;;;;;;;;;;5026632;28;20053;-78
2024/03/30 13:32:40;;;;;;;0.95;0.60;;;;;;;;;;5027455;28;20157;-77
2024/03/30 13:35:09;;;;;;;1.23;0.98;;;;;;;;;;5009367;28;20025;-79
2024/03/30 13:37:35;;;;;;;3.58;1.98;;;;;;;;;;5020047;28;20378;-79
2024/03/30 13:40:01;;;;;;;1.23;1.15;;;;;;;;;;5005661;28;20488;-78
2024/03/30 13:42:26;;;;;;;1.58;1.23;;;;;;;;;;5030139;28;20044;-78
2024/03/30 13:44:52;;;;;;;0.95;0.80;;;;;;;;;;5025873;28;20112;-78
2024/03/30 13:47:17;;;;;;;1.85;1.45;;;;;;;;;;5011245;28;20036;-78
2024/03/30 13:49:43;;;;;;;1.25;1.13;;;;;;;;;;5026463;28;20048;-80
2024/03/30 13:52:08;;;;;;;0.88;0.75;;;;;;;;;;5029379;28;20034;-80
2024/03/30 13:54:36;;;;;;;0.65;0.65;;;;;;;;;;5025367;28;20053;-77
2024/03/30 13:57:02;;;;;;;1.13;0.88;;;;;;;;;;5025728;28;20037;-80
2024/03/30 13:59:27;;;;;;;0.20;0.20;;;;;;;;;;5020365;28;20022;-81
2024/03/30 14:01:53;;;;;;;2.47;1.02;;;;;;;;;;5025717;28;20044;-77
2024/03/30 14:04:18;;;;;;;2.78;2.33;;;;;;;;;;5029120;28;20040;-78
2024/03/30 14:06:43;;;;;;;0.35;0.35;;;;;;;;;;5030170;28;20053;-79
2024/03/30 14:09:09;;;;;;;1.13;0.88;;;;;;;;;;5022451;28;20398;-77
2024/03/30 14:11:35;;;;;;;0.20;0.20;;;;;;;;;;5026654;28;20029;-78
2024/03/30 14:14:00;;;;;;;0.28;0.28;;;;;;;;;;5024731;28;20052;-79
2024/03/30 14:16:26;;;;;;;1.13;0.90;;;;;;;;;;5027368;28;20048;-80
2024/03/30 14:18:51;;;;;;;0.80;0.80;;;;;;;;;;5023961;28;20052;-78
2024/03/30 14:21:17;;;;;;;1.05;0.68;;;;;;;;;;5020852;28;20071;-79
2024/03/30 14:23:42;;;;;;;0.30;0.30;;;;;;;;;;5032183;28;20025;-78
2024/03/30 14:26:08;;;;;;;0.50;0.50;;;;;;;;;;5016006;28;20892;-79
2024/03/30 14:28:33;;;;;;;0.75;0.75;;;;;;;;;;5023102;28;20080;-78
2024/03/30 14:30:58;;;;;;;1.30;1.10;;;;;;;;;;5015830;28;20095;-76
2024/03/30 14:33:24;;;;;;;3.75;2.38;;;;;;;;;;5020729;28;20073;-84
2024/03/30 14:35:49;;;;;;;3.70;0.77;;;;;;;;;;5015389;28;20500;-79
2024/03/30 14:38:15;;;;;;;0.65;0.63;;;;;;;;;;5023931;28;20109;-79
2024/03/30 14:40:40;;;;;;;0.40;0.40;;;;;;;;;;5019047;28;20053;-79